Terminal Aerodrome Forecast
Issued by NWS

Home | Current Version | Previous Version | Text Only | Print | Product List | Glossary On
Versions: 1 2 3 4 5 6 7 8 9 10 11 12 13 14 15
000
FTUS44 KLZK 101700
TAFLLQ
TAF
KLLQ 101736Z 1018/1118 10006KT P6SM SCT030 BKN050
      TEMPO 1018/1022 5SM SHRA BR OVC025
     FM102200 09004KT P6SM BKN040 OVC100
      TEMPO 1022/1102 5SM TSRA BR OVC025CB
     FM110200 09003KT P6SM BKN150
     FM111500 21004KT P6SM BKN250=

USA.gov is the U.S. government's official web portal to all federal, state and local government web resources and services.